Milton, Massachusetts
Current Conditions -  °F | °C
As of 6:53 PM on Saturday 25 Oct 2014 (Local Time) from KOWD Reporting Station
Few Clouds Few Clouds  
Wind Chill: 52°   Ceiling: Unl
Heat Index: 52°   Visibility: 10mi
Dew Point: 44°   Wind: 3mph
Humidity: 74%   Direction: 230°SW
Pressure: 29.6"   Gusts: NA
Location:  42.25°N, 71.08°W
Report Text: KOWD 252253Z 23003KT 10SM FEW050 11/07 A2960 RMK AO2 SLP022 T01110067
Loading
Personal Weather Stations






























Interactive Weather Map
Tropical Storm Tracking
New forecast layout! Learn more

10-Day Weather Forecast

Advertisements
Track Severe Weather on mobile